Platitera Tonouranon — SX7180 — position and weather

sailwx.info

Track history (hours):
 
Tides and Currents Weather Stations Pressure Air Temp Water Temp Dewpoint Dewpoint Depression Visibility Wind Speed Wind Dir Waves Ship Positions

Platitera Tonouranon

Last reported at 2015-May-29 16:33 UTC. Time now 2015-May-30 02:35 UTC.
Position N 37°56' E 023°41'.

Length 55 m; draft 3.8 m.

Type: Ship (hazmat cat A). MMSI: 237038200.

Date/timePositionNaut miles runAvg speedWind from/ knotsBaromVisibWave heightAir tempDewpointWater temp
2015-May-29 16:33N 37°56' E 023°41'1110.7
2015-May-29 15:33N 37°50' E 023°30'9 3.1
2015-May-29 12:33N 37°41' E 023°25'8 1.3
2015-May-29 06:23N 37°44' E 023°35'1012.2
2015-May-29 05:33N 37°53' E 023°39'3 3.3
2015-May-29 04:33N 37°56' E 023°41'1 0.1
2015-May-28 16:33N 37°55' E 023°40'1111.4
2015-May-28 15:33N 37°48' E 023°29'10 3.2
2015-May-28 12:30N 37°39' E 023°26'9 9.0
2015-May-28 11:32N 37°30' E 023°27'14 2.9
2015-May-28 06:33N 37°44' E 023°33'1211.9
2015-May-28 05:33N 37°54' E 023°40'2 2.1
2015-May-28 04:33N 37°56' E 023°41'0 0.0
2015-May-27 17:07N 37°56' E 023°41'3 6.1
2015-May-27 16:33N 37°54' E 023°38'1212.0
2015-May-27 15:33N 37°47' E 023°26'2 1.8
2015-May-27 14:30N 37°45' E 023°26'0 0.0
2015-May-27 13:33N 37°45' E 023°26'10 9.6
2015-May-27 12:32N 37°35' E 023°25'6 4.3
2015-May-27 11:06N 37°29' E 023°29'5 9.6
2015-May-27 10:33N 37°24' E 023°30'10 3.4
2015-May-27 07:29N 37°35' E 023°32'1211.9
2015-May-27 06:31N 37°46' E 023°35'1111.8
2015-May-27 05:33N 37°56' E 023°41'0 0.3
2015-May-27 04:33N 37°56' E 023°41'0 0.0
2015-May-26 21:23N 37°56' E 023°41'0 0.0
2015-May-26 20:33N 37°56' E 023°41'0 0.0
2015-May-26 19:33N 37°56' E 023°41'0 0.0
2015-May-26 18:33N 37°56' E 023°41'0 0.0
2015-May-26 17:33N 37°56' E 023°41'1 1.0
2015-May-26 16:33N 37°55' E 023°40'1110.7
2015-May-26 15:34N 37°48' E 023°31'5 4.1
2015-May-26 14:18N 37°45' E 023°26'0 0.0
2015-May-26 13:26N 37°45' E 023°26'7 7.6
2015-May-26 12:32N 37°38' E 023°25'8 6.2
2015-May-26 11:14N 37°30' E 023°27'5 7.7
2015-May-26 10:33N 37°26' E 023°32'17 4.1
2015-May-26 06:32N 37°43' E 023°33'1212.0
2015-May-26 05:34N 37°54' E 023°39'3 2.9
2015-May-26 04:33N 37°56' E 023°41'0 0.0
2015-May-25 20:11N 37°56' E 023°41'0 0.2
2015-May-25 19:34N 37°56' E 023°41'0 0.0
2015-May-25 18:34N 37°56' E 023°41'0 0.0
2015-May-25 17:34N 37°56' E 023°41'1 1.3
2015-May-25 16:34N 37°55' E 023°40'1211.8
2015-May-25 15:34N 37°48' E 023°29'4 1.6
2015-May-25 13:07N 37°45' E 023°26'611.4
2015-May-25 12:33N 37°38' E 023°26'8 6.4
2015-May-25 11:14N 37°30' E 023°27'7 7.3
2015-May-25 10:12N 37°23' E 023°29'21 5.8
2015-May-25 06:33N 37°44' E 023°33'1111.5
2015-May-25 05:34N 37°54' E 023°40'3 2.7
2015-May-25 04:33N 37°56' E 023°41'0 0.0
2015-May-24 17:29N 37°56' E 023°41'7 7.0
2015-May-24 16:33N 37°52' E 023°34'10 4.9
2015-May-24 14:27N 37°45' E 023°26'0 0.0
2015-May-24 13:32N 37°45' E 023°26'1211.8
2015-May-24 12:32N 37°33' E 023°25'5 3.3
2015-May-24 11:11N 37°30' E 023°29'7 9.5
2015-May-24 10:28N 37°23' E 023°29'1 0.3
2015-May-24 08:32N 37°22' E 023°29'1511.7
2015-May-24 07:15N 37°37' E 023°31'811.9
2015-May-24 06:33N 37°45' E 023°34'10 9.6
2015-May-24 05:33N 37°54' E 023°38'3 3.3
2015-May-24 04:33N 37°56' E 023°41'3 0.2
2015-May-23 16:33N 37°54' E 023°39'1211.8
2015-May-23 15:33N 37°47' E 023°27'2 2.2
2015-May-23 14:29N 37°45' E 023°26'0 0.0
2015-May-23 13:16N 37°45' E 023°26'811.1
2015-May-23 12:32N 37°37' E 023°25'7 6.3
2015-May-23 11:28N 37°30' E 023°27'7 5.8
2015-May-23 10:15N 37°23' E 023°30'2 3.2
2015-May-23 09:32N 37°21' E 023°28'1 1.0
2015-May-23 08:28N 37°22' E 023°29'2311.5
2015-May-23 06:27N 37°45' E 023°36'1111.9
2015-May-23 05:33N 37°55' E 023°40'2 1.6
2015-May-23 04:33N 37°56' E 023°41'1 0.1
2015-May-22 16:33N 37°55' E 023°39'1211.9
2015-May-22 15:33N 37°48' E 023°28'4 3.5
2015-May-22 14:32N 37°45' E 023°26'0 0.0
2015-May-22 13:24N 37°45' E 023°26'5 6.4
2015-May-22 12:33N 37°39' E 023°25'14 7.2
2015-May-22 10:33N 37°26' E 023°32'6 5.8
2015-May-22 09:32N 37°21' E 023°28'0 0.1
2015-May-22 08:28N 37°21' E 023°28'1010.7
2015-May-22 07:31N 37°31' E 023°32'1211.8
2015-May-22 06:32N 37°42' E 023°34'1111.7
2015-May-22 05:33N 37°53' E 023°39'4 3.6
2015-May-22 04:33N 37°56' E 023°41'3 0.2
2015-May-21 16:33N 37°55' E 023°38'1211.9
2015-May-21 15:34N 37°47' E 023°27'25 4.8
2015-May-21 10:23N 37°22' E 023°28'25 6.4
2015-May-21 06:34N 37°46' E 023°34'1111.3
2015-May-21 05:34N 37°56' E 023°41'0 0.1
2015-May-21 04:33N 37°56' E 023°41'1 0.1
2015-May-20 16:34N 37°56' E 023°40'1211.8
2015-May-20 15:33N 37°48' E 023°28'4 3.1
2015-May-20 14:12N 37°45' E 023°26'0 0.0
2015-May-20 13:12N 37°45' E 023°26'710.1
2015-May-20 12:33N 37°38' E 023°26'8 1.3
2015-May-20 06:34N 37°43' E 023°33'1211.8
2015-May-20 05:33N 37°54' E 023°39'2 2.4
2015-May-20 04:33N 37°56' E 023°41'1 0.0
2015-May-19 16:34N 37°56' E 023°40'  
Track history (hours):
 
Tides and Currents Weather Stations Pressure Air Temp Water Temp Dewpoint Dewpoint Depression Visibility Wind Speed Wind Dir Waves Ship Positions

Platitera Tonouranon

Last reported at 2015-May-29 16:33 UTC. Time now 2015-May-30 02:35 UTC.
Position N 37°56' E 023°41'.

Length 55 m; draft 3.8 m.

Type: Ship (hazmat cat A). MMSI: 237038200.

Date/timePositionNaut miles runAvg speedWind from/ knotsBaromVisibWave heightAir tempDewpointWater temp
2015-May-29 16:33N 37°56' E 023°41'1110.7
2015-May-29 15:33N 37°50' E 023°30'9 3.1
2015-May-29 12:33N 37°41' E 023°25'8 1.3
2015-May-29 06:23N 37°44' E 023°35'1012.2
2015-May-29 05:33N 37°53' E 023°39'3 3.3
2015-May-29 04:33N 37°56' E 023°41'1 0.1
2015-May-28 16:33N 37°55' E 023°40'1111.4
2015-May-28 15:33N 37°48' E 023°29'10 3.2
2015-May-28 12:30N 37°39' E 023°26'9 9.0
2015-May-28 11:32N 37°30' E 023°27'14 2.9
2015-May-28 06:33N 37°44' E 023°33'1211.9
2015-May-28 05:33N 37°54' E 023°40'2 2.1
2015-May-28 04:33N 37°56' E 023°41'0 0.0
2015-May-27 17:07N 37°56' E 023°41'3 6.1
2015-May-27 16:33N 37°54' E 023°38'1212.0
2015-May-27 15:33N 37°47' E 023°26'2 1.8
2015-May-27 14:30N 37°45' E 023°26'0 0.0
2015-May-27 13:33N 37°45' E 023°26'10 9.6
2015-May-27 12:32N 37°35' E 023°25'6 4.3
2015-May-27 11:06N 37°29' E 023°29'5 9.6
2015-May-27 10:33N 37°24' E 023°30'10 3.4
2015-May-27 07:29N 37°35' E 023°32'1211.9
2015-May-27 06:31N 37°46' E 023°35'1111.8
2015-May-27 05:33N 37°56' E 023°41'0 0.3
2015-May-27 04:33N 37°56' E 023°41'0 0.0
2015-May-26 21:23N 37°56' E 023°41'0 0.0
2015-May-26 20:33N 37°56' E 023°41'0 0.0
2015-May-26 19:33N 37°56' E 023°41'0 0.0
2015-May-26 18:33N 37°56' E 023°41'0 0.0
2015-May-26 17:33N 37°56' E 023°41'1 1.0
2015-May-26 16:33N 37°55' E 023°40'1110.7
2015-May-26 15:34N 37°48' E 023°31'5 4.1
2015-May-26 14:18N 37°45' E 023°26'0 0.0
2015-May-26 13:26N 37°45' E 023°26'7 7.6
2015-May-26 12:32N 37°38' E 023°25'8 6.2
2015-May-26 11:14N 37°30' E 023°27'5 7.7
2015-May-26 10:33N 37°26' E 023°32'17 4.1
2015-May-26 06:32N 37°43' E 023°33'1212.0
2015-May-26 05:34N 37°54' E 023°39'3 2.9
2015-May-26 04:33N 37°56' E 023°41'0 0.0
2015-May-25 20:11N 37°56' E 023°41'0 0.2
2015-May-25 19:34N 37°56' E 023°41'0 0.0
2015-May-25 18:34N 37°56' E 023°41'0 0.0
2015-May-25 17:34N 37°56' E 023°41'1 1.3
2015-May-25 16:34N 37°55' E 023°40'1211.8
2015-May-25 15:34N 37°48' E 023°29'4 1.6
2015-May-25 13:07N 37°45' E 023°26'611.4
2015-May-25 12:33N 37°38' E 023°26'8 6.4
2015-May-25 11:14N 37°30' E 023°27'7 7.3
2015-May-25 10:12N 37°23' E 023°29'21 5.8
2015-May-25 06:33N 37°44' E 023°33'1111.5
2015-May-25 05:34N 37°54' E 023°40'3 2.7
2015-May-25 04:33N 37°56' E 023°41'0 0.0
2015-May-24 17:29N 37°56' E 023°41'7 7.0
2015-May-24 16:33N 37°52' E 023°34'10 4.9
2015-May-24 14:27N 37°45' E 023°26'0 0.0
2015-May-24 13:32N 37°45' E 023°26'1211.8
2015-May-24 12:32N 37°33' E 023°25'5 3.3
2015-May-24 11:11N 37°30' E 023°29'7 9.5
2015-May-24 10:28N 37°23' E 023°29'1 0.3
2015-May-24 08:32N 37°22' E 023°29'1511.7
2015-May-24 07:15N 37°37' E 023°31'811.9
2015-May-24 06:33N 37°45' E 023°34'10 9.6
2015-May-24 05:33N 37°54' E 023°38'3 3.3
2015-May-24 04:33N 37°56' E 023°41'3 0.2
2015-May-23 16:33N 37°54' E 023°39'1211.8
2015-May-23 15:33N 37°47' E 023°27'2 2.2
2015-May-23 14:29N 37°45' E 023°26'0 0.0
2015-May-23 13:16N 37°45' E 023°26'811.1
2015-May-23 12:32N 37°37' E 023°25'7 6.3
2015-May-23 11:28N 37°30' E 023°27'7 5.8
2015-May-23 10:15N 37°23' E 023°30'2 3.2
2015-May-23 09:32N 37°21' E 023°28'1 1.0
2015-May-23 08:28N 37°22' E 023°29'2311.5
2015-May-23 06:27N 37°45' E 023°36'1111.9
2015-May-23 05:33N 37°55' E 023°40'2 1.6
2015-May-23 04:33N 37°56' E 023°41'1 0.1
2015-May-22 16:33N 37°55' E 023°39'1211.9
2015-May-22 15:33N 37°48' E 023°28'4 3.5
2015-May-22 14:32N 37°45' E 023°26'0 0.0
2015-May-22 13:24N 37°45' E 023°26'5 6.4
2015-May-22 12:33N 37°39' E 023°25'14 7.2
2015-May-22 10:33N 37°26' E 023°32'6 5.8
2015-May-22 09:32N 37°21' E 023°28'0 0.1
2015-May-22 08:28N 37°21' E 023°28'1010.7
2015-May-22 07:31N 37°31' E 023°32'1211.8
2015-May-22 06:32N 37°42' E 023°34'1111.7
2015-May-22 05:33N 37°53' E 023°39'4 3.6
2015-May-22 04:33N 37°56' E 023°41'3 0.2
2015-May-21 16:33N 37°55' E 023°38'1211.9
2015-May-21 15:34N 37°47' E 023°27'25 4.8
2015-May-21 10:23N 37°22' E 023°28'25 6.4
2015-May-21 06:34N 37°46' E 023°34'1111.3
2015-May-21 05:34N 37°56' E 023°41'0 0.1
2015-May-21 04:33N 37°56' E 023°41'1 0.1
2015-May-20 16:34N 37°56' E 023°40'1211.8
2015-May-20 15:33N 37°48' E 023°28'4 3.1
2015-May-20 14:12N 37°45' E 023°26'0 0.0
2015-May-20 13:12N 37°45' E 023°26'710.1
2015-May-20 12:33N 37°38' E 023°26'8 1.3
2015-May-20 06:34N 37°43' E 023°33'1211.8
2015-May-20 05:33N 37°54' E 023°39'2 2.4
2015-May-20 04:33N 37°56' E 023°41'1 0.0
2015-May-19 16:34N 37°56' E 023°40'  

Dump ship's entire track history